Time;durP1;ratioP1;P1;durP2;ratioP2;P2;SDS_P1;SDS_P2;PMS_P1;PMS_P2;Temp;Humidity;BMP_temperature;BMP_pressure;BME280_temperature;BME280_humidity;BME280_pressure;Samples;Min_cycle;Max_cycle;Signal;HPM_P1;HPM_P2
2021/04/06 00:00:28;;;;;;;8.07;4.70;;;;;;;0.70;68.26;98524.47;115324;1199;103037;-76
2021/04/06 00:03:15;;;;;;;10.47;5.33;;;;;;;0.69;68.09;98517.66;115358;1197;103072;-77
2021/04/06 00:05:49;;;;;;;9.83;4.93;;;;;;;0.70;68.73;98515.94;115312;1196;103006;-76
2021/04/06 00:08:17;;;;;;;9.57;5.10;;;;;;;0.71;68.55;98531.30;115321;1199;103216;-78
2021/04/06 00:10:48;;;;;;;9.30;5.20;;;;;;;0.71;68.91;98527.89;115317;1199;103037;-76
2021/04/06 00:13:17;;;;;;;12.73;5.37;;;;;;;0.71;68.57;98520.19;115458;1197;103107;-77
2021/04/06 00:15:46;;;;;;;11.27;5.23;;;;;;;0.72;68.71;98532.14;115281;1200;103229;-77
2021/04/06 00:18:16;;;;;;;12.17;5.53;;;;;;;0.71;68.95;98533.86;115491;1196;103146;-77
2021/04/06 00:20:46;;;;;;;12.07;5.87;;;;;;;0.71;68.61;98544.13;115288;1196;103416;-77
2021/04/06 00:23:16;;;;;;;10.10;5.03;;;;;;;0.70;69.09;98539.02;115383;1196;103060;-77
2021/04/06 00:25:47;;;;;;;11.97;5.43;;;;;;;0.67;68.52;98537.38;115511;1197;103203;-77
2021/04/06 00:28:20;;;;;;;10.40;5.80;;;;;;;0.68;68.93;98543.34;115263;1199;103130;-77
2021/04/06 00:30:50;;;;;;;9.30;4.90;;;;;;;0.64;69.12;98547.70;115604;1197;103156;-76
2021/04/06 00:33:25;;;;;;;9.67;5.03;;;;;;;0.63;69.17;98546.01;115473;1196;103180;-77
2021/04/06 00:36:03;;;;;;;11.67;5.80;;;;;;;0.64;69.09;98559.69;115285;1198;103036;-75
2021/04/06 00:38:38;;;;;;;12.27;5.40;;;;;;;0.63;68.93;98545.16;115536;1197;103011;-76
2021/04/06 00:41:10;;;;;;;11.17;5.77;;;;;;;0.60;68.99;98552.05;115386;1196;102986;-77
2021/04/06 00:43:40;;;;;;;10.13;5.30;;;;;;;0.57;69.20;98544.42;115535;1199;102887;-77
2021/04/06 00:46:20;;;;;;;10.27;5.07;;;;;;;0.57;68.96;98554.68;115416;1199;103098;-77
2021/04/06 00:48:52;;;;;;;11.73;5.40;;;;;;;0.53;69.51;98555.59;115297;1200;103008;-77
2021/04/06 00:51:21;;;;;;;10.27;5.77;;;;;;;0.52;69.38;98543.64;115300;1198;103072;-76
2021/04/06 00:53:59;;;;;;;9.87;5.03;;;;;;;0.49;69.35;98551.39;115224;1199;102985;-77
2021/04/06 00:56:37;;;;;;;10.93;5.85;;;;;;;0.47;69.02;98571.10;115434;1196;103082;-77
2021/04/06 00:59:10;;;;;;;10.37;4.50;;;;;;;0.44;69.55;98575.45;115583;1196;103031;-77
2021/04/06 01:01:37;;;;;;;10.37;4.83;;;;;;;0.39;68.88;98570.41;115286;1200;101265;-77
2021/04/06 01:04:09;;;;;;;9.47;4.47;;;;;;;0.37;69.31;98582.42;115561;1196;103015;-77
2021/04/06 01:06:57;;;;;;;9.43;5.47;;;;;;;0.35;69.69;98581.57;115441;1199;103168;-76
2021/04/06 01:09:44;;;;;;;8.33;4.80;;;;;;;0.35;69.51;98584.13;115550;1196;103095;-77
2021/04/06 01:12:14;;;;;;;10.83;5.60;;;;;;;0.35;69.11;98586.70;115586;1196;103085;-76
2021/04/06 01:14:44;;;;;;;10.87;5.67;;;;;;;0.36;69.61;98598.67;115291;1199;103089;-77
2021/04/06 01:17:15;;;;;;;8.43;4.63;;;;;;;0.35;69.16;98596.95;115288;1199;102522;-76
2021/04/06 01:19:43;;;;;;;8.17;4.50;;;;;;;0.34;69.29;98602.11;115375;1196;103129;-76
2021/04/06 01:22:14;;;;;;;12.07;5.10;;;;;;;0.32;69.18;98593.61;115245;1199;103034;-76
2021/04/06 01:24:43;;;;;;;8.20;4.00;;;;;;;0.31;69.36;98597.89;115567;1197;103037;-75
2021/04/06 01:27:14;;;;;;;9.07;4.57;;;;;;;0.27;68.86;98596.26;115544;1196;103065;-76
2021/04/06 01:29:53;;;;;;;9.20;4.27;;;;;;;0.26;69.43;98603.10;115584;1198;103161;-75
2021/04/06 01:32:22;;;;;;;10.07;4.53;;;;;;;0.26;69.20;98609.95;115379;1199;103143;-76
2021/04/06 01:34:51;;;;;;;9.77;4.80;;;;;;;0.26;69.27;98605.67;115253;1196;103111;-76
2021/04/06 01:37:28;;;;;;;6.80;3.90;;;;;;;0.31;69.59;98615.84;115375;1199;102967;-75
2021/04/06 01:39:58;;;;;;;10.30;4.70;;;;;;;0.33;69.21;98615.81;115299;1199;103101;-76
2021/04/06 01:42:31;;;;;;;8.47;4.20;;;;;;;0.36;69.41;98626.02;115344;1197;103084;-77
2021/04/06 01:45:01;;;;;;;7.50;4.10;;;;;;;0.39;69.66;98625.98;115262;1198;103075;-76
2021/04/06 01:47:28;;;;;;;8.27;4.30;;;;;;;0.42;69.54;98631.90;115542;1199;103184;-76
2021/04/06 01:49:59;;;;;;;10.83;4.30;;;;;;;0.43;69.34;98635.31;115492;1196;103143;-76
2021/04/06 01:52:27;;;;;;;10.50;4.47;;;;;;;0.44;68.64;98624.17;115340;1196;103017;-75
2021/04/06 01:55:01;;;;;;;9.17;4.67;;;;;;;0.42;68.68;98642.16;115501;1200;103015;-76
2021/04/06 01:57:42;;;;;;;9.90;4.50;;;;;;;0.42;68.92;98643.88;115245;1199;103264;-77
2021/04/06 02:01:04;;;;;;;9.83;4.47;;;;;;;0.43;68.98;98643.85;115516;1196;103043;-76
2021/04/06 02:03:07;;;;;;;9.97;4.07;;;;;;;0.43;68.83;98637.88;115480;1196;103104;-76
2021/04/06 02:05:35;;;;;;;8.27;4.20;;;;;;;0.45;69.17;98647.23;115533;1200;103034;-76
2021/04/06 02:08:13;;;;;;;7.10;3.90;;;;;;;0.47;68.61;98652.33;115534;1198;104175;-77
2021/04/06 02:10:40;;;;;;;10.33;4.27;;;;;;;0.48;68.56;98647.17;115249;1196;103264;-77
2021/04/06 02:13:14;;;;;;;10.00;4.33;;;;;;;0.51;68.57;98666.79;115461;1196;103086;-77
2021/04/06 02:15:54;;;;;;;7.63;3.70;;;;;;;0.54;68.98;98653.94;115264;1196;103082;-77
2021/04/06 02:18:23;;;;;;;9.43;4.10;;;;;;;0.53;68.64;98659.91;115572;1197;103204;-76
2021/04/06 02:20:52;;;;;;;10.97;4.43;;;;;;;0.54;68.62;98662.48;115533;1199;103092;-77
2021/04/06 02:23:19;;;;;;;9.20;4.73;;;;;;;0.54;68.19;98656.50;115274;1199;102989;-77
2021/04/06 02:25:53;;;;;;;13.55;4.20;;;;;;;0.55;68.03;98664.17;115276;1196;103015;-77
2021/04/06 02:28:22;;;;;;;7.33;3.93;;;;;;;0.54;68.47;98662.48;115289;1197;103047;-77
2021/04/06 02:31:09;;;;;;;10.27;4.00;;;;;;;0.54;68.19;98656.50;115277;1199;103092;-76
2021/04/06 02:33:38;;;;;;;8.07;3.53;;;;;;;0.50;68.11;98667.66;115330;1200;103070;-76
2021/04/06 02:36:10;;;;;;;7.50;3.60;;;;;;;0.49;68.25;98664.25;115303;1200;103191;-77
2021/04/06 02:38:43;;;;;;;6.93;3.83;;;;;;;0.51;68.35;98666.79;115288;1197;102890;-77
2021/04/06 02:41:17;;;;;;;8.10;3.80;;;;;;;0.52;67.73;98666.77;115293;1200;103030;-77
2021/04/06 02:43:47;;;;;;;7.87;3.50;;;;;;;0.54;68.18;98677.88;115330;1199;103073;-76
2021/04/06 02:46:24;;;;;;;9.55;3.70;;;;;;;0.55;67.90;98677.00;115243;1200;103430;-76
2021/04/06 02:48:53;;;;;;;;;;;;;;;0.56;68.24;98683.82;115307;1205;103143;-76
2021/04/06 02:51:21;;;;;;;7.97;3.53;;;;;;;0.56;67.55;98683.82;115461;1200;103101;-76
2021/04/06 02:53:53;;;;;;;9.77;3.37;;;;;;;0.58;67.82;98683.79;115354;1200;103017;-76
2021/04/06 02:56:34;;;;;;;9.97;3.57;;;;;;;0.59;67.76;98682.92;115312;1199;101899;-77
2021/04/06 02:59:15;;;;;;;5.95;3.10;;;;;;;0.58;67.37;98682.07;115377;1199;103197;-77
2021/04/06 03:01:43;;;;;;;9.60;3.57;;;;;;;0.60;67.70;98682.05;115352;1199;103075;-76
2021/04/06 03:04:27;;;;;;;5.77;3.23;;;;;;;0.62;68.00;98684.58;115513;1199;103184;-77
2021/04/06 03:06:56;;;;;;;8.03;3.10;;;;;;;0.62;67.77;98684.58;115309;1199;103056;-77
2021/04/06 03:09:26;;;;;;;8.17;2.97;;;;;;;0.61;67.87;98663.21;115298;1196;103014;-77
2021/04/06 03:11:55;;;;;;;7.07;3.43;;;;;;;0.59;68.24;98681.20;115510;1199;104062;-77
2021/04/06 03:14:24;;;;;;;7.10;3.10;;;;;;;0.58;68.14;98676.94;115245;1197;103078;-76
2021/04/06 03:16:53;;;;;;;8.75;3.10;;;;;;;0.58;67.46;98676.94;115350;1199;103069;-76
2021/04/06 03:19:30;;;;;;;8.17;3.10;;;;;;;0.59;67.80;98672.66;115281;1199;103012;-76
2021/04/06 03:22:00;;;;;;;6.37;2.70;;;;;;;0.58;67.42;98678.66;115286;1200;102531;-77
2021/04/06 03:24:29;;;;;;;7.37;3.10;;;;;;;0.57;67.98;98669.27;115305;1197;103204;-76
2021/04/06 03:27:07;;;;;;;7.70;2.90;;;;;;;0.55;68.27;98684.70;115270;1196;103025;-77
2021/04/06 03:29:34;;;;;;;6.70;2.80;;;;;;;0.54;68.26;98672.74;115457;1196;102995;-76
2021/04/06 03:32:03;;;;;;;9.23;3.50;;;;;;;0.55;68.49;98681.28;115625;1196;103082;-77
2021/04/06 03:34:33;;;;;;;7.50;3.03;;;;;;;0.53;68.12;98675.30;115303;1199;103468;-76
2021/04/06 03:37:03;;;;;;;6.33;2.80;;;;;;;0.51;68.30;98682.19;115272;1196;104826;-77
2021/04/06 03:39:33;;;;;;;7.17;3.10;;;;;;;0.47;69.02;98678.83;115512;1196;103123;-76
2021/04/06 03:42:01;;;;;;;9.00;3.47;;;;;;;0.46;69.54;98684.83;115521;1199;103012;-77
2021/04/06 03:44:30;;;;;;;7.75;3.00;;;;;;;0.43;69.43;98684.89;115479;1198;102980;-76
2021/04/06 03:47:03;;;;;;;5.03;3.10;;;;;;;0.39;69.65;98678.13;115353;1197;102024;-76
2021/04/06 03:49:32;;;;;;;10.17;3.30;;;;;;;0.36;70.08;98678.17;115272;1196;102466;-77
2021/04/06 03:52:08;;;;;;;7.65;3.55;;;;;;;0.30;70.11;98678.25;115267;1197;103249;-77
2021/04/06 03:54:50;;;;;;;9.10;3.40;;;;;;;0.26;70.50;98679.18;115550;1200;103089;-76
2021/04/06 03:57:38;;;;;;;9.30;3.40;;;;;;;0.21;70.70;98683.55;115319;1200;103066;-76
2021/04/06 04:00:10;;;;;;;6.00;3.20;;;;;;;0.12;70.43;98679.38;115549;1196;103008;-77
2021/04/06 04:02:38;;;;;;;9.77;3.13;;;;;;;0.15;70.66;98678.48;115521;1199;103005;-77
2021/04/06 04:05:06;;;;;;;9.17;3.40;;;;;;;0.13;70.59;98685.36;115205;1196;103184;-76
2021/04/06 04:07:38;;;;;;;10.10;3.30;;;;;;;0.13;70.43;98685.36;115311;1199;103050;-77
2021/04/06 04:10:07;;;;;;;7.90;3.40;;;;;;;0.10;70.75;98685.41;115268;1200;103056;-76
2021/04/06 04:12:35;;;;;;;10.33;3.53;;;;;;;0.11;70.33;98681.98;115547;1196;101388;-77
2021/04/06 04:15:03;;;;;;;8.37;3.67;;;;;;;0.10;69.70;98686.25;115299;1197;103091;-77
2021/04/06 04:17:30;;;;;;;8.20;3.53;;;;;;;0.11;70.16;98682.82;115261;1199;103053;-76
2021/04/06 04:19:57;;;;;;;8.00;3.60;;;;;;;0.14;70.30;98681.92;115251;1199;103028;-76
2021/04/06 04:22:24;;;;;;;9.90;3.53;;;;;;;0.25;70.26;98687.75;115501;1197;103015;-77
2021/04/06 04:24:51;;;;;;;10.27;3.50;;;;;;;0.77;70.09;98681.75;115298;1198;103091;-76
2021/04/06 04:27:18;;;;;;;4.20;2.50;;;;;;;1.72;68.89;98679.00;115512;1196;103198;-77
2021/04/06 04:29:45;;;;;;;4.87;2.77;;;;;;;2.68;67.52;98688.75;115476;1197;103217;-77
2021/04/06 04:32:13;;;;;;;6.20;2.90;;;;;;;3.61;65.83;98668.20;115312;1196;103148;-76
2021/04/06 04:34:41;;;;;;;8.27;3.60;;;;;;;3.98;63.78;98680.85;115249;1199;103187;-77
2021/04/06 04:37:09;;;;;;;5.63;3.00;;;;;;;4.78;63.25;98676.55;115296;1198;104496;-77
2021/04/06 04:39:36;;;;;;;7.17;3.10;;;;;;;5.27;61.10;98669.69;115275;1200;103041;-77
2021/04/06 04:42:03;;;;;;;5.87;2.90;;;;;;;6.02;61.08;98691.89;115480;1200;103271;-77
2021/04/06 04:44:30;;;;;;;7.70;2.75;;;;;;;7.01;59.32;98678.42;115540;1196;103002;-77
2021/04/06 04:46:57;;;;;;;5.00;2.50;;;;;;;7.84;56.21;98672.06;115352;1199;103054;-77
2021/04/06 04:49:25;;;;;;;6.63;2.43;;;;;;;8.36;55.46;98664.45;115300;1199;103060;-78
2021/04/06 04:51:52;;;;;;;5.57;2.50;;;;;;;8.04;52.51;98657.31;115251;1199;103177;-77
2021/04/06 04:54:20;;;;;;;4.87;2.30;;;;;;;7.10;53.06;98647.73;115271;1199;103550;-77
2021/04/06 04:56:47;;;;;;;6.67;2.80;;;;;;;6.51;54.04;98666.66;115303;1200;103056;-76
2021/04/06 04:59:14;;;;;;;6.63;2.40;;;;;;;5.78;54.18;98661.75;115451;1199;103056;-77
2021/04/06 05:01:41;;;;;;;5.83;2.80;;;;;;;5.12;55.54;98673.65;115271;1196;103056;-77
2021/04/06 05:04:08;;;;;;;7.63;2.80;;;;;;;4.77;56.36;98673.13;115220;1199;103027;-77
2021/04/06 05:06:35;;;;;;;6.63;3.00;;;;;;;5.57;56.41;98668.58;115366;1199;103024;-77
2021/04/06 05:09:05;;;;;;;5.80;2.30;;;;;;;5.35;55.48;98672.82;115338;1197;103062;-77
2021/04/06 05:11:33;;;;;;;7.20;2.60;;;;;;;6.12;56.21;98674.27;115313;1198;102985;-77
2021/04/06 05:14:01;;;;;;;6.53;2.63;;;;;;;6.53;54.72;98689.90;115225;1199;103213;-77
2021/04/06 05:16:28;;;;;;;5.75;2.80;;;;;;;6.14;54.57;98687.16;115299;1199;103104;-77
2021/04/06 05:18:56;;;;;;;7.10;3.03;;;;;;;6.84;54.94;98697.27;115333;1196;102992;-77
2021/04/06 05:21:23;;;;;;;7.63;3.10;;;;;;;7.64;53.55;98690.30;115282;1196;103552;-78
2021/04/06 05:23:50;;;;;;;6.83;3.03;;;;;;;7.65;52.89;98701.52;115545;1197;103117;-77
2021/04/06 05:26:17;;;;;;;7.17;2.90;;;;;;;7.03;51.85;98705.95;115245;1197;103120;-77
2021/04/06 05:28:44;;;;;;;8.20;2.83;;;;;;;6.31;52.89;98708.05;115524;1196;103531;-77
2021/04/06 05:31:11;;;;;;;7.10;3.43;;;;;;;5.66;53.67;98719.95;115505;1196;102983;-77
2021/04/06 05:33:38;;;;;;;8.07;3.30;;;;;;;5.11;54.27;98739.16;115604;1196;103140;-77
2021/04/06 05:36:06;;;;;;;7.37;3.10;;;;;;;4.62;55.18;98740.77;115269;1196;103156;-77
2021/04/06 05:38:33;;;;;;;7.03;3.60;;;;;;;4.15;55.99;98740.52;115355;1200;102979;-79
2021/04/06 05:41:01;;;;;;;6.00;3.33;;;;;;;3.70;56.84;98734.96;115283;1200;103005;-77
2021/04/06 05:43:28;;;;;;;10.70;4.33;;;;;;;3.36;57.78;98740.20;115310;1199;102957;-76
2021/04/06 05:45:56;;;;;;;7.13;3.77;;;;;;;3.12;58.64;98743.44;115316;1199;103062;-77
2021/04/06 05:48:24;;;;;;;6.90;3.77;;;;;;;2.88;59.32;98748.34;115243;1196;103028;-77
2021/04/06 05:50:53;;;;;;;9.93;4.17;;;;;;;2.71;59.72;98758.21;115261;1196;103066;-77
2021/04/06 05:53:21;;;;;;;7.80;3.90;;;;;;;2.53;60.58;98751.77;115259;1196;103036;-76
2021/04/06 05:55:49;;;;;;;11.87;4.43;;;;;;;2.41;60.60;98752.89;115567;1196;103076;-76
2021/04/06 05:58:16;;;;;;;9.90;4.17;;;;;;;2.31;61.37;98756.55;115465;1200;103039;-77
2021/04/06 06:00:44;;;;;;;14.13;4.80;;;;;;;2.22;61.38;98759.34;115216;1200;103277;-76
2021/04/06 06:03:11;;;;;;;9.97;5.20;;;;;;;2.15;62.18;98762.91;115481;1199;103586;-76
2021/04/06 06:05:41;;;;;;;10.17;4.60;;;;;;;2.09;62.13;98770.77;115268;1196;103120;-76
2021/04/06 06:08:14;;;;;;;11.03;4.63;;;;;;;2.03;62.68;98770.91;115392;1198;103250;-78
2021/04/06 06:10:41;;;;;;;8.63;4.30;;;;;;;2.01;63.33;98785.52;115559;1196;103050;-76
2021/04/06 06:13:35;;;;;;;10.33;4.60;;;;;;;1.97;63.03;98789.86;115211;1196;103140;-77
2021/04/06 06:16:20;;;;;;;11.07;5.17;;;;;;;1.91;63.40;98804.58;115270;1199;103047;-77
2021/04/06 06:19:20;;;;;;;9.87;4.87;;;;;;;1.84;63.82;98808.16;115224;1199;103086;-77
2021/04/06 06:21:52;;;;;;;8.30;4.50;;;;;;;1.76;64.02;98814.28;115174;1202;103037;-77
2021/04/06 06:24:31;;;;;;;11.10;4.40;;;;;;;1.71;64.15;98820.39;114996;1202;103191;-76
2021/04/06 06:26:59;;;;;;;12.95;5.05;;;;;;;1.64;64.19;98811.13;114911;1203;103242;-77
2021/04/06 06:29:43;;;;;;;13.27;5.30;;;;;;;1.59;64.22;98818.89;115062;1200;103092;-76
2021/04/06 06:32:19;;;;;;;10.45;4.65;;;;;;;1.60;65.07;98828.30;114987;1202;103143;-77
2021/04/06 06:34:49;;;;;;;11.20;5.07;;;;;;;1.59;65.10;98806.05;115059;1203;103033;-78
2021/04/06 06:37:28;;;;;;;12.80;4.97;;;;;;;1.56;65.34;98803.54;115003;1202;103328;-77
2021/04/06 06:39:59;;;;;;;9.77;4.83;;;;;;;1.51;65.29;98807.92;115032;1202;103126;-79
2021/04/06 06:42:37;;;;;;;11.43;5.67;;;;;;;1.50;65.10;98808.80;115069;1202;102986;-79
2021/04/06 06:45:21;;;;;;;13.80;6.20;;;;;;;1.50;65.13;98824.22;115089;1203;103229;-79
2021/04/06 06:47:56;;;;;;;13.90;5.90;;;;;;;1.49;65.36;98812.25;115077;1202;103126;-79
2021/04/06 06:50:49;;;;;;;16.15;6.20;;;;;;;1.51;65.94;98805.36;115233;1203;103116;-79
2021/04/06 06:53:41;;;;;;;12.57;5.67;;;;;;;1.56;65.46;98825.81;115148;1203;103197;-79
2021/04/06 06:56:10;;;;;;;11.63;6.27;;;;;;;1.61;65.83;98822.28;115044;1202;103063;-79
2021/04/06 06:58:41;;;;;;;14.83;6.00;;;;;;;1.64;66.15;98813.69;115284;1199;103255;-79
2021/04/06 07:01:26;;;;;;;15.77;5.77;;;;;;;1.62;65.33;98818.02;115364;1198;103516;-79
2021/04/06 07:04:03;;;;;;;17.63;5.93;;;;;;;1.60;65.78;98817.17;115362;1199;102989;-79
2021/04/06 07:06:31;;;;;;;16.00;6.30;;;;;;;1.64;65.60;98819.67;115350;1199;103168;-79
2021/04/06 07:08:58;;;;;;;13.70;5.83;;;;;;;1.68;65.49;98810.17;115382;1198;103508;-79
2021/04/06 07:11:28;;;;;;;17.37;6.30;;;;;;;1.69;64.98;98815.28;115285;1198;102986;-79
2021/04/06 07:13:56;;;;;;;14.40;5.63;;;;;;;1.75;64.88;98829.73;115366;1199;103059;-78
2021/04/06 07:16:25;;;;;;;15.40;6.00;;;;;;;1.81;64.91;98833.05;115388;1199;103073;-78
2021/04/06 07:18:53;;;;;;;11.70;6.35;;;;;;;1.84;64.86;98836.44;115571;1200;103103;-79
2021/04/06 07:21:24;;;;;;;13.67;5.40;;;;;;;1.89;65.01;98839.75;115316;1198;103469;-78
2021/04/06 07:24:06;;;;;;;13.63;5.40;;;;;;;1.90;64.68;98844.02;115548;1196;103066;-79
2021/04/06 07:26:33;;;;;;;11.90;5.03;;;;;;;1.92;64.68;98847.41;115452;1198;102141;-78
2021/04/06 07:29:01;;;;;;;12.90;4.90;;;;;;;1.93;64.55;98852.52;115553;1197;103011;-78
2021/04/06 07:31:28;;;;;;;25.60;6.20;;;;;;;1.94;64.51;98871.36;115555;1196;103168;-78
2021/04/06 07:33:56;;;;;;;13.83;5.60;;;;;;;1.94;64.23;98873.93;115365;1196;102977;-79
2021/04/06 07:36:26;;;;;;;13.67;5.27;;;;;;;1.98;64.29;98873.02;115347;1199;103018;-79
2021/04/06 07:38:57;;;;;;;10.30;5.10;;;;;;;2.06;64.18;98863.41;115421;1197;103066;-79
2021/04/06 07:41:27;;;;;;;13.73;5.43;;;;;;;2.16;64.29;98859.79;115338;1200;103060;-79
2021/04/06 07:43:57;;;;;;;17.93;5.90;;;;;;;2.26;64.28;98863.85;115357;1200;103011;-78
2021/04/06 07:46:33;;;;;;;13.70;5.27;;;;;;;2.37;63.74;98849.05;115383;1199;102854;-79
2021/04/06 07:49:08;;;;;;;;;;;;;;;2.51;63.77;98851.30;115347;1204;103044;-79
2021/04/06 07:51:56;;;;;;;13.30;5.40;;;;;;;2.57;63.76;98858.06;115609;1198;103110;-79
2021/04/06 07:54:30;;;;;;;13.55;5.40;;;;;;;2.66;63.25;98853.54;115331;1199;103056;-78
2021/04/06 07:57:03;;;;;;;18.27;5.67;;;;;;;2.72;63.13;98855.15;115344;1199;103419;-79
2021/04/06 07:59:30;;;;;;;11.90;4.90;;;;;;;2.78;63.12;98854.16;115420;1197;103011;-78
2021/04/06 08:02:01;;;;;;;12.07;4.80;;;;;;;2.83;62.67;98850.58;115607;1196;103079;-79
2021/04/06 08:04:37;;;;;;;13.10;5.87;;;;;;;2.87;61.94;98859.08;115627;1196;103130;-78
2021/04/06 08:07:20;;;;;;;18.13;5.10;;;;;;;2.87;61.68;98857.38;115379;1199;101855;-79
2021/04/06 08:10:17;;;;;;;12.50;4.70;;;;;;;2.81;61.74;98854.08;115392;1200;103079;-79
2021/04/06 08:12:46;;;;;;;12.30;4.87;;;;;;;2.83;61.58;98848.00;115365;1196;103124;-78
2021/04/06 08:15:15;;;;;;;12.73;4.80;;;;;;;2.88;61.77;98846.20;115294;1196;103075;-79
2021/04/06 08:17:44;;;;;;;13.50;4.97;;;;;;;2.90;61.57;98841.00;115391;1196;103146;-78
2021/04/06 08:20:14;;;;;;;16.03;6.10;;;;;;;2.94;61.41;98846.04;115360;1200;103051;-80
2021/04/06 08:22:46;;;;;;;13.10;5.30;;;;;;;2.89;61.23;98845.31;115552;1199;102985;-79
2021/04/06 08:25:22;;;;;;;9.40;4.55;;;;;;;2.82;61.10;98851.47;115380;1196;103120;-79
2021/04/06 08:27:54;;;;;;;11.93;5.37;;;;;;;2.72;60.93;98845.70;115579;1196;103083;-78
2021/04/06 08:30:25;;;;;;;22.20;6.13;;;;;;;2.67;60.96;98852.66;115656;1199;103459;-78
2021/04/06 08:32:59;;;;;;;12.60;5.00;;;;;;;2.58;60.81;98854.61;115377;1196;101810;-79
2021/04/06 08:35:44;;;;;;;13.20;5.47;;;;;;;2.48;60.57;98856.52;115589;1197;103114;-79
2021/04/06 08:38:25;;;;;;;11.30;5.55;;;;;;;2.43;60.64;98873.80;115419;1199;103069;-79
2021/04/06 08:40:56;;;;;;;15.65;5.60;;;;;;;2.41;60.93;98886.69;115385;1199;103124;-80
2021/04/06 08:43:28;;;;;;;13.13;5.50;;;;;;;2.45;60.60;98894.34;115635;1199;103060;-79
2021/04/06 08:45:56;;;;;;;11.97;4.50;;;;;;;2.49;60.44;98885.67;115360;1198;103491;-79
2021/04/06 08:48:55;;;;;;;18.33;6.07;;;;;;;2.59;60.36;98892.33;115356;1199;103120;-79
2021/04/06 08:51:27;;;;;;;15.07;5.40;;;;;;;2.71;60.40;98889.50;115364;1196;103033;-80
2021/04/06 08:54:01;;;;;;;16.67;5.33;;;;;;;2.86;59.88;98883.13;115541;1199;103102;-79
2021/04/06 08:56:36;;;;;;;17.07;5.30;;;;;;;2.99;59.81;98884.55;115415;1199;103137;-79
2021/04/06 08:59:14;;;;;;;13.40;5.40;;;;;;;3.08;59.72;98878.36;115370;1198;103629;-79
2021/04/06 09:01:43;;;;;;;14.30;5.67;;;;;;;3.18;59.56;98874.66;115276;1197;102983;-78
2021/04/06 09:04:20;;;;;;;12.30;5.67;;;;;;;3.21;59.31;98887.47;115308;1199;103008;-76
2021/04/06 09:06:48;;;;;;;14.10;6.37;;;;;;;3.18;59.38;98888.39;115319;1200;103087;-78
2021/04/06 09:09:30;;;;;;;14.80;6.77;;;;;;;3.15;59.42;98892.77;115300;1200;103107;-79
2021/04/06 09:11:59;;;;;;;18.30;6.70;;;;;;;3.12;59.31;98890.27;115337;1200;103037;-78
2021/04/06 09:14:29;;;;;;;18.40;6.80;;;;;;;3.09;59.58;98890.35;115273;1197;102822;-79
2021/04/06 09:16:56;;;;;;;16.15;6.85;;;;;;;3.12;59.77;98879.97;115333;1196;103168;-79
2021/04/06 09:19:24;;;;;;;13.40;6.50;;;;;;;3.20;59.66;98885.77;115360;1196;103105;-78
2021/04/06 09:21:52;;;;;;;15.50;6.10;;;;;;;3.32;59.40;98882.91;115304;1196;103137;-78
2021/04/06 09:24:22;;;;;;;16.00;6.73;;;;;;;3.44;59.08;98882.61;115319;1196;103056;-78
2021/04/06 09:26:52;;;;;;;14.17;6.67;;;;;;;3.69;59.03;98884.55;115438;1196;103001;-79
2021/04/06 09:29:26;;;;;;;18.57;6.57;;;;;;;4.05;57.92;98869.83;115364;1196;103574;-79
2021/04/06 09:32:03;;;;;;;12.63;6.00;;;;;;;4.37;57.36;98869.77;115495;1196;102998;-79
2021/04/06 09:34:33;;;;;;;15.10;6.00;;;;;;;4.66;56.85;98878.37;115368;1198;103039;-78
2021/04/06 09:37:13;;;;;;;14.47;5.80;;;;;;;4.77;56.94;98879.75;115405;1194;103098;-77
2021/04/06 09:39:47;;;;;;;12.30;5.80;;;;;;;4.86;56.24;98876.05;115318;1199;102925;-78
2021/04/06 09:42:15;;;;;;;11.33;5.47;;;;;;;4.93;55.54;98872.38;115283;1196;103034;-78
2021/04/06 09:44:44;;;;;;;14.80;5.97;;;;;;;4.85;54.54;98879.53;115353;1199;102925;-78
2021/04/06 09:47:15;;;;;;;11.27;5.27;;;;;;;4.74;54.13;98886.75;115344;1199;103114;-78
2021/04/06 09:49:51;;;;;;;13.70;5.37;;;;;;;4.65;54.17;98887.01;115407;1200;103153;-78
2021/04/06 09:52:26;;;;;;;12.87;5.07;;;;;;;4.50;54.43;98898.66;115298;1199;103293;-78
2021/04/06 09:55:05;;;;;;;11.83;4.83;;;;;;;4.36;54.63;98890.46;115341;1199;102999;-78
2021/04/06 09:57:34;;;;;;;13.27;5.07;;;;;;;4.17;55.17;98893.56;115499;1197;102973;-79
2021/04/06 10:00:07;;;;;;;11.10;4.77;;;;;;;4.03;55.18;98898.25;115517;1199;103114;-77
2021/04/06 10:02:35;;;;;;;11.70;4.90;;;;;;;3.93;55.42;98902.80;115316;1197;103001;-78
2021/04/06 10:05:04;;;;;;;11.07;4.57;;;;;;;3.89;55.70;98890.03;115304;1196;103059;-78
2021/04/06 10:07:33;;;;;;;13.47;4.27;;;;;;;3.86;55.96;98890.12;115342;1196;103076;-79
2021/04/06 10:10:17;;;;;;;11.37;4.20;;;;;;;3.80;55.73;98891.13;115419;1196;103066;-78
2021/04/06 10:12:45;;;;;;;12.43;3.90;;;;;;;3.73;55.89;98881.00;115343;1196;103089;-79
2021/04/06 10:15:21;;;;;;;12.13;4.27;;;;;;;3.71;56.15;98883.63;115334;1196;103091;-78
2021/04/06 10:17:49;;;;;;;;;;;;;;;3.69;56.21;98874.23;115368;1205;103123;-77
2021/04/06 10:20:22;;;;;;;11.95;4.10;;;;;;;3.70;56.26;98879.35;115592;1200;103111;-79
2021/04/06 10:22:52;;;;;;;13.10;4.85;;;;;;;3.73;56.09;98870.69;115382;1196;103108;-78
2021/04/06 10:25:36;;;;;;;14.60;4.87;;;;;;;3.74;56.23;98873.22;115329;1199;103037;-79
2021/04/06 10:28:22;;;;;;;11.80;4.27;;;;;;;3.70;55.89;98878.51;115329;1196;103194;-78
2021/04/06 10:30:57;;;;;;;10.83;4.43;;;;;;;3.68;55.87;98872.55;115272;1197;103063;-78
2021/04/06 10:33:29;;;;;;;12.83;4.43;;;;;;;3.62;55.65;98879.56;115305;1199;103082;-78
2021/04/06 10:36:00;;;;;;;13.33;5.27;;;;;;;3.63;55.79;98878.68;115323;1196;103072;-78
2021/04/06 10:38:37;;;;;;;8.20;3.90;;;;;;;3.68;56.00;98880.28;115290;1199;103171;-78
2021/04/06 10:41:10;;;;;;;12.10;4.27;;;;;;;3.87;55.90;98878.91;115342;1196;105241;-78
2021/04/06 10:43:41;;;;;;;10.53;3.80;;;;;;;4.50;56.46;98872.84;115288;1196;103249;-79
2021/04/06 10:46:16;;;;;;;10.77;4.10;;;;;;;5.35;54.53;98839.13;115357;1196;103088;-78
2021/04/06 10:48:49;;;;;;;11.93;4.60;;;;;;;6.34;53.17;98840.82;115359;1196;103053;-77
2021/04/06 10:51:24;;;;;;;9.30;3.30;;;;;;;7.22;52.17;98854.66;115379;1198;103044;-78
2021/04/06 10:53:55;;;;;;;12.60;3.80;;;;;;;7.87;49.61;98845.83;115356;1200;102012;-78
2021/04/06 10:56:27;;;;;;;9.47;3.50;;;;;;;8.27;47.47;98836.30;115321;1199;103059;-79
2021/04/06 10:58:58;;;;;;;10.20;3.33;;;;;;;8.76;47.56;98849.65;115335;1199;103098;-78
2021/04/06 11:01:44;;;;;;;9.93;3.97;;;;;;;8.94;46.44;98853.98;115360;1199;102987;-78
2021/04/06 11:04:12;;;;;;;8.93;3.20;;;;;;;8.66;45.45;98838.02;115441;1199;103158;-78
2021/04/06 11:06:42;;;;;;;7.85;3.30;;;;;;;8.43;46.35;98863.28;115506;1198;103132;-79
2021/04/06 11:09:13;;;;;;;9.77;3.40;;;;;;;8.56;45.52;98857.53;115430;1196;103611;-79
2021/04/06 11:11:42;;;;;;;10.70;3.93;;;;;;;8.35;45.23;98854.16;115375;1198;103375;-79
2021/04/06 11:14:15;;;;;;;8.13;4.00;;;;;;;8.33;46.48;98863.75;115353;1199;103015;-78
2021/04/06 11:16:43;;;;;;;9.35;4.50;;;;;;;8.62;46.37;98867.67;115350;1196;102998;-78
2021/04/06 11:19:24;;;;;;;8.80;3.35;;;;;;;8.82;46.79;98869.34;115324;1199;102982;-77
2021/04/06 11:21:54;;;;;;;13.40;3.50;;;;;;;8.98;45.50;98868.55;115509;1197;103008;-75
2021/04/06 11:24:24;;;;;;;9.40;3.27;;;;;;;9.13;45.37;98873.91;115305;1199;103092;-74
2021/04/06 11:26:52;;;;;;;7.77;3.10;;;;;;;9.35;44.25;98871.97;115292;1199;103117;-75
2021/04/06 11:29:23;;;;;;;6.70;3.20;;;;;;;9.24;41.72;98877.69;115363;1196;102222;-78
2021/04/06 11:31:52;;;;;;;10.00;2.80;;;;;;;9.19;41.20;98864.06;115582;1196;101559;-79
2021/04/06 11:34:20;;;;;;;6.65;2.80;;;;;;;9.20;41.99;98872.71;115290;1197;103092;-79
2021/04/06 11:36:48;;;;;;;7.33;3.20;;;;;;;9.16;41.42;98873.78;115347;1197;103012;-78
2021/04/06 11:39:17;;;;;;;7.83;3.27;;;;;;;8.94;41.79;98877.38;115308;1199;103159;-78
2021/04/06 11:41:48;;;;;;;6.97;3.23;;;;;;;8.84;40.95;98873.55;115358;1198;103474;-78
2021/04/06 11:44:17;;;;;;;5.40;2.47;;;;;;;8.68;40.09;98862.17;115318;1199;102986;-78